sensor_id;sensor_type;location;lat;lon;timestamp;temperature;humidity
45008;DHT22;30743;52.008;5.644;2024-01-27T00:01:35;7.50;99.90
45008;DHT22;30743;52.008;5.644;2024-01-27T00:04:01;7.50;99.90
45008;DHT22;30743;52.008;5.644;2024-01-27T00:06:27;7.50;99.90
45008;DHT22;30743;52.008;5.644;2024-01-27T00:08:52;7.50;99.90
45008;DHT22;30743;52.008;5.644;2024-01-27T00:11:18;7.50;99.90
45008;DHT22;30743;52.008;5.644;2024-01-27T00:13:45;8.40;99.90
45008;DHT22;30743;52.008;5.644;2024-01-27T00:16:10;7.80;99.90
45008;DHT22;30743;52.008;5.644;2024-01-27T00:18:37;8.00;99.90
45008;DHT22;30743;52.008;5.644;2024-01-27T00:21:04;8.10;99.90
45008;DHT22;30743;52.008;5.644;2024-01-27T00:23:30;8.10;99.90
45008;DHT22;30743;52.008;5.644;2024-01-27T00:25:55;8.40;99.90
45008;DHT22;30743;52.008;5.644;2024-01-27T00:28:21;8.50;99.90
45008;DHT22;30743;52.008;5.644;2024-01-27T00:30:46;8.80;99.90
45008;DHT22;30743;52.008;5.644;2024-01-27T00:33:12;9.20;99.90
45008;DHT22;30743;52.008;5.644;2024-01-27T00:35:38;8.20;99.90
45008;DHT22;30743;52.008;5.644;2024-01-27T00:38:03;8.10;99.90
45008;DHT22;30743;52.008;5.644;2024-01-27T00:40:29;8.10;99.90
45008;DHT22;30743;52.008;5.644;2024-01-27T00:42:54;8.10;99.90
45008;DHT22;30743;52.008;5.644;2024-01-27T00:45:20;8.20;99.90
45008;DHT22;30743;52.008;5.644;2024-01-27T00:47:51;8.30;99.90
45008;DHT22;30743;52.008;5.644;2024-01-27T00:50:17;8.30;99.90
45008;DHT22;30743;52.008;5.644;2024-01-27T00:52:42;8.30;99.90
45008;DHT22;30743;52.008;5.644;2024-01-27T00:55:08;8.30;99.90
45008;DHT22;30743;52.008;5.644;2024-01-27T00:57:36;8.30;99.90
45008;DHT22;30743;52.008;5.644;2024-01-27T01:00:04;8.30;99.90
45008;DHT22;30743;52.008;5.644;2024-01-27T01:02:30;8.20;99.90
45008;DHT22;30743;52.008;5.644;2024-01-27T01:04:55;8.00;99.90
45008;DHT22;30743;52.008;5.644;2024-01-27T01:07:21;8.10;99.90
45008;DHT22;30743;52.008;5.644;2024-01-27T01:09:46;7.80;99.90
45008;DHT22;30743;52.008;5.644;2024-01-27T01:12:12;7.70;99.90
45008;DHT22;30743;52.008;5.644;2024-01-27T01:14:37;8.80;99.90
45008;DHT22;30743;52.008;5.644;2024-01-27T01:17:05;7.90;99.90
45008;DHT22;30743;52.008;5.644;2024-01-27T01:19:30;7.80;99.90
45008;DHT22;30743;52.008;5.644;2024-01-27T01:21:56;7.70;99.90
45008;DHT22;30743;52.008;5.644;2024-01-27T01:24:21;7.90;99.90
45008;DHT22;30743;52.008;5.644;2024-01-27T01:26:47;7.90;99.90
45008;DHT22;30743;52.008;5.644;2024-01-27T01:29:12;8.00;99.90
45008;DHT22;30743;52.008;5.644;2024-01-27T01:31:38;8.10;99.90
45008;DHT22;30743;52.008;5.644;2024-01-27T01:34:06;8.20;99.90
45008;DHT22;30743;52.008;5.644;2024-01-27T01:36:31;8.40;99.90
45008;DHT22;30743;52.008;5.644;2024-01-27T01:38:57;8.50;99.90
45008;DHT22;30743;52.008;5.644;2024-01-27T01:41:23;8.60;99.90
45008;DHT22;30743;52.008;5.644;2024-01-27T01:43:48;8.50;99.90
45008;DHT22;30743;52.008;5.644;2024-01-27T01:46:14;8.60;99.90
45008;DHT22;30743;52.008;5.644;2024-01-27T01:48:39;8.60;99.90
45008;DHT22;30743;52.008;5.644;2024-01-27T01:51:05;8.70;99.90
45008;DHT22;30743;52.008;5.644;2024-01-27T01:53:31;8.70;99.90
45008;DHT22;30743;52.008;5.644;2024-01-27T01:55:57;8.70;99.90
45008;DHT22;30743;52.008;5.644;2024-01-27T01:58:23;8.70;99.90
45008;DHT22;30743;52.008;5.644;2024-01-27T02:00:49;8.70;99.90
45008;DHT22;30743;52.008;5.644;2024-01-27T02:03:14;8.70;99.90
45008;DHT22;30743;52.008;5.644;2024-01-27T02:05:40;8.80;99.90
45008;DHT22;30743;52.008;5.644;2024-01-27T02:08:05;8.70;99.90
45008;DHT22;30743;52.008;5.644;2024-01-27T02:10:31;8.80;99.90
45008;DHT22;30743;52.008;5.644;2024-01-27T02:13:23;9.00;99.90
45008;DHT22;30743;52.008;5.644;2024-01-27T02:15:50;8.60;99.90
45008;DHT22;30743;52.008;5.644;2024-01-27T02:18:16;8.60;99.90
45008;DHT22;30743;52.008;5.644;2024-01-27T02:20:42;8.50;99.90
45008;DHT22;30743;52.008;5.644;2024-01-27T02:23:08;8.50;99.90
45008;DHT22;30743;52.008;5.644;2024-01-27T02:25:34;8.50;99.90
45008;DHT22;30743;52.008;5.644;2024-01-27T02:28:01;8.50;99.90
45008;DHT22;30743;52.008;5.644;2024-01-27T02:30:28;8.60;99.90
45008;DHT22;30743;52.008;5.644;2024-01-27T02:32:55;8.50;99.90
45008;DHT22;30743;52.008;5.644;2024-01-27T02:35:21;8.40;99.90
45008;DHT22;30743;52.008;5.644;2024-01-27T02:37:47;8.30;99.90
45008;DHT22;30743;52.008;5.644;2024-01-27T02:40:12;8.30;99.90
45008;DHT22;30743;52.008;5.644;2024-01-27T02:42:39;8.30;99.90
45008;DHT22;30743;52.008;5.644;2024-01-27T02:45:07;8.30;99.90
45008;DHT22;30743;52.008;5.644;2024-01-27T02:47:33;8.40;99.90
45008;DHT22;30743;52.008;5.644;2024-01-27T02:49:59;8.40;99.90
45008;DHT22;30743;52.008;5.644;2024-01-27T02:52:24;8.30;99.90
45008;DHT22;30743;52.008;5.644;2024-01-27T02:54:50;8.30;99.90
45008;DHT22;30743;52.008;5.644;2024-01-27T02:57:16;8.30;99.90
45008;DHT22;30743;52.008;5.644;2024-01-27T02:59:45;8.20;99.90
45008;DHT22;30743;52.008;5.644;2024-01-27T03:02:11;8.70;99.90
45008;DHT22;30743;52.008;5.644;2024-01-27T03:04:36;8.10;99.90
45008;DHT22;30743;52.008;5.644;2024-01-27T03:07:02;9.40;99.90
45008;DHT22;30743;52.008;5.644;2024-01-27T03:09:28;8.10;99.90
45008;DHT22;30743;52.008;5.644;2024-01-27T03:11:53;8.10;99.90
45008;DHT22;30743;52.008;5.644;2024-01-27T03:14:19;8.20;99.90
45008;DHT22;30743;52.008;5.644;2024-01-27T03:16:45;8.20;99.90
45008;DHT22;30743;52.008;5.644;2024-01-27T03:19:10;8.10;99.90
45008;DHT22;30743;52.008;5.644;2024-01-27T03:21:36;8.10;99.90
45008;DHT22;30743;52.008;5.644;2024-01-27T03:24:01;8.80;99.90
45008;DHT22;30743;52.008;5.644;2024-01-27T03:26:27;8.10;99.90
45008;DHT22;30743;52.008;5.644;2024-01-27T03:28:53;8.10;99.90
45008;DHT22;30743;52.008;5.644;2024-01-27T03:31:18;8.20;99.90
45008;DHT22;30743;52.008;5.644;2024-01-27T03:33:44;8.20;99.90
45008;DHT22;30743;52.008;5.644;2024-01-27T03:36:11;8.30;99.90
45008;DHT22;30743;52.008;5.644;2024-01-27T03:38:38;8.30;99.90
45008;DHT22;30743;52.008;5.644;2024-01-27T03:41:04;8.20;99.90
45008;DHT22;30743;52.008;5.644;2024-01-27T03:43:30;8.10;99.90
45008;DHT22;30743;52.008;5.644;2024-01-27T03:45:57;8.10;99.90
45008;DHT22;30743;52.008;5.644;2024-01-27T03:48:22;8.10;99.90
45008;DHT22;30743;52.008;5.644;2024-01-27T03:50:48;9.40;99.90
45008;DHT22;30743;52.008;5.644;2024-01-27T03:53:13;8.10;99.90
45008;DHT22;30743;52.008;5.644;2024-01-27T03:55:39;8.10;99.90
45008;DHT22;30743;52.008;5.644;2024-01-27T03:58:05;8.10;99.90
45008;DHT22;30743;52.008;5.644;2024-01-27T04:00:31;8.10;99.90
45008;DHT22;30743;52.008;5.644;2024-01-27T04:02:59;8.00;99.90
45008;DHT22;30743;52.008;5.644;2024-01-27T04:05:25;8.00;99.90
45008;DHT22;30743;52.008;5.644;2024-01-27T04:07:50;7.90;99.90
45008;DHT22;30743;52.008;5.644;2024-01-27T04:10:17;8.00;99.90
45008;DHT22;30743;52.008;5.644;2024-01-27T04:12:43;7.90;99.90
45008;DHT22;30743;52.008;5.644;2024-01-27T04:15:10;9.00;99.90
45008;DHT22;30743;52.008;5.644;2024-01-27T04:17:36;9.50;99.90
45008;DHT22;30743;52.008;5.644;2024-01-27T04:20:02;7.90;99.90
45008;DHT22;30743;52.008;5.644;2024-01-27T04:22:28;7.90;99.90
45008;DHT22;30743;52.008;5.644;2024-01-27T04:24:53;8.00;99.90
45008;DHT22;30743;52.008;5.644;2024-01-27T04:27:19;8.00;99.90
45008;DHT22;30743;52.008;5.644;2024-01-27T04:29:45;8.00;99.90
45008;DHT22;30743;52.008;5.644;2024-01-27T04:32:11;8.10;99.90
45008;DHT22;30743;52.008;5.644;2024-01-27T04:34:38;8.00;99.90
45008;DHT22;30743;52.008;5.644;2024-01-27T04:37:04;8.00;99.90
45008;DHT22;30743;52.008;5.644;2024-01-27T04:39:29;8.00;99.90
45008;DHT22;30743;52.008;5.644;2024-01-27T04:41:55;8.00;99.90
45008;DHT22;30743;52.008;5.644;2024-01-27T04:44:21;8.00;99.90
45008;DHT22;30743;52.008;5.644;2024-01-27T04:46:47;8.00;99.90
45008;DHT22;30743;52.008;5.644;2024-01-27T04:49:14;8.00;99.90
45008;DHT22;30743;52.008;5.644;2024-01-27T04:51:40;8.00;99.90
45008;DHT22;30743;52.008;5.644;2024-01-27T04:54:06;7.90;99.90
45008;DHT22;30743;52.008;5.644;2024-01-27T04:56:31;8.00;99.90
45008;DHT22;30743;52.008;5.644;2024-01-27T04:58:57;7.90;99.90
45008;DHT22;30743;52.008;5.644;2024-01-27T05:01:23;7.90;99.90
45008;DHT22;30743;52.008;5.644;2024-01-27T05:03:48;7.90;99.90
45008;DHT22;30743;52.008;5.644;2024-01-27T05:06:14;7.80;99.90
45008;DHT22;30743;52.008;5.644;2024-01-27T05:08:40;7.80;99.90
45008;DHT22;30743;52.008;5.644;2024-01-27T05:11:06;7.80;99.90
45008;DHT22;30743;52.008;5.644;2024-01-27T05:13:32;7.70;99.90
45008;DHT22;30743;52.008;5.644;2024-01-27T05:15:57;7.80;99.90
45008;DHT22;30743;52.008;5.644;2024-01-27T05:18:23;7.70;99.90
45008;DHT22;30743;52.008;5.644;2024-01-27T05:20:49;7.70;99.90
45008;DHT22;30743;52.008;5.644;2024-01-27T05:23:14;7.70;99.90
45008;DHT22;30743;52.008;5.644;2024-01-27T05:25:40;7.70;99.90
45008;DHT22;30743;52.008;5.644;2024-01-27T05:28:06;7.80;99.90
45008;DHT22;30743;52.008;5.644;2024-01-27T05:30:31;7.70;99.90
45008;DHT22;30743;52.008;5.644;2024-01-27T05:32:57;8.10;99.90
45008;DHT22;30743;52.008;5.644;2024-01-27T05:35:22;7.80;99.90
45008;DHT22;30743;52.008;5.644;2024-01-27T05:37:48;7.70;99.90
45008;DHT22;30743;52.008;5.644;2024-01-27T05:40:14;7.80;99.90
45008;DHT22;30743;52.008;5.644;2024-01-27T05:42:40;7.70;99.90
45008;DHT22;30743;52.008;5.644;2024-01-27T05:45:08;7.70;99.90
45008;DHT22;30743;52.008;5.644;2024-01-27T05:47:35;7.70;99.90
45008;DHT22;30743;52.008;5.644;2024-01-27T05:50:01;7.60;99.90
45008;DHT22;30743;52.008;5.644;2024-01-27T05:52:26;7.60;99.90
45008;DHT22;30743;52.008;5.644;2024-01-27T05:54:52;7.60;99.90
45008;DHT22;30743;52.008;5.644;2024-01-27T05:57:18;7.60;99.90
45008;DHT22;30743;52.008;5.644;2024-01-27T05:59:43;7.60;99.90
45008;DHT22;30743;52.008;5.644;2024-01-27T06:02:09;7.50;99.90
45008;DHT22;30743;52.008;5.644;2024-01-27T06:04:35;7.50;99.90
45008;DHT22;30743;52.008;5.644;2024-01-27T06:07:00;7.50;99.90
45008;DHT22;30743;52.008;5.644;2024-01-27T06:09:26;7.40;99.90
45008;DHT22;30743;52.008;5.644;2024-01-27T06:11:51;7.50;99.90
45008;DHT22;30743;52.008;5.644;2024-01-27T06:14:17;7.30;99.90
45008;DHT22;30743;52.008;5.644;2024-01-27T06:16:42;7.30;99.90
45008;DHT22;30743;52.008;5.644;2024-01-27T06:19:08;7.30;99.90
45008;DHT22;30743;52.008;5.644;2024-01-27T06:21:34;7.30;99.90
45008;DHT22;30743;52.008;5.644;2024-01-27T06:24:00;7.30;99.90
45008;DHT22;30743;52.008;5.644;2024-01-27T06:26:26;7.20;99.90
45008;DHT22;30743;52.008;5.644;2024-01-27T06:28:52;7.20;99.90
45008;DHT22;30743;52.008;5.644;2024-01-27T06:31:17;7.70;99.90
45008;DHT22;30743;52.008;5.644;2024-01-27T06:33:43;7.10;99.90
45008;DHT22;30743;52.008;5.644;2024-01-27T06:36:09;7.10;99.90
45008;DHT22;30743;52.008;5.644;2024-01-27T06:38:36;7.10;99.90
45008;DHT22;30743;52.008;5.644;2024-01-27T06:41:03;7.10;99.90
45008;DHT22;30743;52.008;5.644;2024-01-27T06:43:29;7.00;99.90
45008;DHT22;30743;52.008;5.644;2024-01-27T06:45:54;7.00;99.90
45008;DHT22;30743;52.008;5.644;2024-01-27T06:48:22;7.00;99.90
45008;DHT22;30743;52.008;5.644;2024-01-27T06:50:50;7.20;99.90
45008;DHT22;30743;52.008;5.644;2024-01-27T06:53:18;7.00;99.90
45008;DHT22;30743;52.008;5.644;2024-01-27T06:55:44;7.20;99.90
45008;DHT22;30743;52.008;5.644;2024-01-27T06:58:10;7.00;99.90
45008;DHT22;30743;52.008;5.644;2024-01-27T07:00:35;7.00;99.90
45008;DHT22;30743;52.008;5.644;2024-01-27T07:03:01;7.00;99.90
45008;DHT22;30743;52.008;5.644;2024-01-27T07:05:28;6.90;99.90
45008;DHT22;30743;52.008;5.644;2024-01-27T07:07:53;7.00;99.90
45008;DHT22;30743;52.008;5.644;2024-01-27T07:10:19;7.00;99.90
45008;DHT22;30743;52.008;5.644;2024-01-27T07:12:45;7.00;99.90
45008;DHT22;30743;52.008;5.644;2024-01-27T07:15:10;7.00;99.90
45008;DHT22;30743;52.008;5.644;2024-01-27T07:17:36;7.00;99.90
45008;DHT22;30743;52.008;5.644;2024-01-27T07:20:01;6.90;99.90
45008;DHT22;30743;52.008;5.644;2024-01-27T07:22:27;6.90;99.90
45008;DHT22;30743;52.008;5.644;2024-01-27T07:24:53;7.00;99.90
45008;DHT22;30743;52.008;5.644;2024-01-27T07:27:19;6.80;99.90
45008;DHT22;30743;52.008;5.644;2024-01-27T07:29:44;6.80;99.90
45008;DHT22;30743;52.008;5.644;2024-01-27T07:32:10;6.70;99.90
45008;DHT22;30743;52.008;5.644;2024-01-27T07:34:43;6.70;99.90
45008;DHT22;30743;52.008;5.644;2024-01-27T07:37:09;6.80;99.90
45008;DHT22;30743;52.008;5.644;2024-01-27T07:39:35;6.80;99.90
45008;DHT22;30743;52.008;5.644;2024-01-27T07:42:00;6.80;99.90
45008;DHT22;30743;52.008;5.644;2024-01-27T07:44:27;7.10;99.90
45008;DHT22;30743;52.008;5.644;2024-01-27T07:46:53;7.00;99.90
45008;DHT22;30743;52.008;5.644;2024-01-27T07:49:18;7.10;99.90
45008;DHT22;30743;52.008;5.644;2024-01-27T07:51:44;7.40;99.90
45008;DHT22;30743;52.008;5.644;2024-01-27T07:54:10;7.30;99.90
45008;DHT22;30743;52.008;5.644;2024-01-27T07:56:37;8.70;99.90
45008;DHT22;30743;52.008;5.644;2024-01-27T07:59:02;7.60;99.90
45008;DHT22;30743;52.008;5.644;2024-01-27T08:01:29;7.80;99.90
45008;DHT22;30743;52.008;5.644;2024-01-27T08:03:54;7.90;99.90
45008;DHT22;30743;52.008;5.644;2024-01-27T08:06:28;8.20;99.90
45008;DHT22;30743;52.008;5.644;2024-01-27T08:08:53;8.50;99.90
45008;DHT22;30743;52.008;5.644;2024-01-27T08:11:19;8.50;99.90
45008;DHT22;30743;52.008;5.644;2024-01-27T08:13:45;8.70;99.90
45008;DHT22;30743;52.008;5.644;2024-01-27T08:16:10;11.40;99.90
45008;DHT22;30743;52.008;5.644;2024-01-27T08:18:41;8.80;99.90
45008;DHT22;30743;52.008;5.644;2024-01-27T08:21:10;9.10;99.90
45008;DHT22;30743;52.008;5.644;2024-01-27T08:23:37;9.60;99.90
45008;DHT22;30743;52.008;5.644;2024-01-27T08:26:03;10.10;99.90
45008;DHT22;30743;52.008;5.644;2024-01-27T08:28:28;10.60;99.90
45008;DHT22;30743;52.008;5.644;2024-01-27T08:30:54;10.90;99.90
45008;DHT22;30743;52.008;5.644;2024-01-27T08:33:20;11.90;99.90
45008;DHT22;30743;52.008;5.644;2024-01-27T08:35:46;11.20;99.90
45008;DHT22;30743;52.008;5.644;2024-01-27T08:38:13;11.30;99.90
45008;DHT22;30743;52.008;5.644;2024-01-27T08:40:39;10.40;99.90
45008;DHT22;30743;52.008;5.644;2024-01-27T08:43:04;11.50;99.90
45008;DHT22;30743;52.008;5.644;2024-01-27T08:45:31;11.50;99.90
45008;DHT22;30743;52.008;5.644;2024-01-27T08:47:57;11.50;99.90
45008;DHT22;30743;52.008;5.644;2024-01-27T08:50:22;11.50;99.90
45008;DHT22;30743;52.008;5.644;2024-01-27T08:52:48;11.60;99.90
45008;DHT22;30743;52.008;5.644;2024-01-27T08:55:14;11.60;99.90
45008;DHT22;30743;52.008;5.644;2024-01-27T08:57:39;11.80;99.90
45008;DHT22;30743;52.008;5.644;2024-01-27T09:00:05;11.80;99.90
45008;DHT22;30743;52.008;5.644;2024-01-27T09:02:31;11.90;99.90
45008;DHT22;30743;52.008;5.644;2024-01-27T09:04:57;12.30;99.90
45008;DHT22;30743;52.008;5.644;2024-01-27T09:07:23;12.80;99.90
45008;DHT22;30743;52.008;5.644;2024-01-27T09:09:49;13.30;99.90
45008;DHT22;30743;52.008;5.644;2024-01-27T09:12:14;13.70;99.90
45008;DHT22;30743;52.008;5.644;2024-01-27T09:14:40;13.80;99.90
45008;DHT22;30743;52.008;5.644;2024-01-27T09:17:06;14.30;99.90
45008;DHT22;30743;52.008;5.644;2024-01-27T09:19:31;14.60;99.90
45008;DHT22;30743;52.008;5.644;2024-01-27T09:21:57;15.20;99.90
45008;DHT22;30743;52.008;5.644;2024-01-27T09:24:23;15.70;99.90
45008;DHT22;30743;52.008;5.644;2024-01-27T09:26:48;16.00;99.90
45008;DHT22;30743;52.008;5.644;2024-01-27T09:29:14;16.30;99.90
45008;DHT22;30743;52.008;5.644;2024-01-27T09:31:40;16.40;99.90
45008;DHT22;30743;52.008;5.644;2024-01-27T09:34:05;16.80;99.90
45008;DHT22;30743;52.008;5.644;2024-01-27T09:36:31;17.30;99.90
45008;DHT22;30743;52.008;5.644;2024-01-27T09:38:56;17.50;99.90
45008;DHT22;30743;52.008;5.644;2024-01-27T09:41:30;18.00;99.90
45008;DHT22;30743;52.008;5.644;2024-01-27T09:44:02;18.40;99.90
45008;DHT22;30743;52.008;5.644;2024-01-27T09:46:29;19.20;99.90
45008;DHT22;30743;52.008;5.644;2024-01-27T09:48:55;19.50;99.90
45008;DHT22;30743;52.008;5.644;2024-01-27T09:51:21;19.80;99.90
45008;DHT22;30743;52.008;5.644;2024-01-27T09:53:48;20.10;99.90
45008;DHT22;30743;52.008;5.644;2024-01-27T09:56:15;20.60;99.90
45008;DHT22;30743;52.008;5.644;2024-01-27T09:58:44;20.90;99.90
45008;DHT22;30743;52.008;5.644;2024-01-27T10:01:10;21.00;99.90
45008;DHT22;30743;52.008;5.644;2024-01-27T10:03:40;21.50;99.90
45008;DHT22;30743;52.008;5.644;2024-01-27T10:06:08;21.50;99.90
45008;DHT22;30743;52.008;5.644;2024-01-27T10:08:35;21.80;99.90
45008;DHT22;30743;52.008;5.644;2024-01-27T10:11:06;21.80;99.90
45008;DHT22;30743;52.008;5.644;2024-01-27T10:13:33;21.90;99.90
45008;DHT22;30743;52.008;5.644;2024-01-27T10:16:08;21.90;99.90
45008;DHT22;30743;52.008;5.644;2024-01-27T10:18:34;22.10;99.90
45008;DHT22;30743;52.008;5.644;2024-01-27T10:21:00;22.10;99.90
45008;DHT22;30743;52.008;5.644;2024-01-27T10:23:26;22.00;99.90
45008;DHT22;30743;52.008;5.644;2024-01-27T10:25:52;22.60;99.90
45008;DHT22;30743;52.008;5.644;2024-01-27T10:28:18;23.00;99.90
45008;DHT22;30743;52.008;5.644;2024-01-27T10:30:44;23.20;99.90
45008;DHT22;30743;52.008;5.644;2024-01-27T10:33:11;23.20;99.90
45008;DHT22;30743;52.008;5.644;2024-01-27T10:35:43;23.50;99.90
45008;DHT22;30743;52.008;5.644;2024-01-27T10:38:09;23.90;99.40
45008;DHT22;30743;52.008;5.644;2024-01-27T10:40:37;24.30;98.90
45008;DHT22;30743;52.008;5.644;2024-01-27T10:45:47;24.20;98.20
45008;DHT22;30743;52.008;5.644;2024-01-27T10:48:13;24.20;98.00
45008;DHT22;30743;52.008;5.644;2024-01-27T10:50:40;24.30;98.60
45008;DHT22;30743;52.008;5.644;2024-01-27T10:53:23;24.60;97.90
45008;DHT22;30743;52.008;5.644;2024-01-27T10:55:57;24.90;97.30
45008;DHT22;30743;52.008;5.644;2024-01-27T10:58:24;24.70;97.10
45008;DHT22;30743;52.008;5.644;2024-01-27T11:00:53;24.70;97.70
45008;DHT22;30743;52.008;5.644;2024-01-27T11:03:19;25.00;96.40
45008;DHT22;30743;52.008;5.644;2024-01-27T11:05:46;25.10;96.50
45008;DHT22;30743;52.008;5.644;2024-01-27T11:08:13;25.70;96.90
45008;DHT22;30743;52.008;5.644;2024-01-27T11:10:39;26.60;96.40
45008;DHT22;30743;52.008;5.644;2024-01-27T11:13:06;27.10;95.00
45008;DHT22;30743;52.008;5.644;2024-01-27T11:15:33;27.80;95.20
45008;DHT22;30743;52.008;5.644;2024-01-27T11:17:59;28.30;94.30
45008;DHT22;30743;52.008;5.644;2024-01-27T11:20:31;28.70;93.80
45008;DHT22;30743;52.008;5.644;2024-01-27T11:23:11;29.30;93.10
45008;DHT22;30743;52.008;5.644;2024-01-27T11:25:37;30.00;91.60
45008;DHT22;30743;52.008;5.644;2024-01-27T11:28:13;30.40;90.00
45008;DHT22;30743;52.008;5.644;2024-01-27T11:30:39;30.20;90.50
45008;DHT22;30743;52.008;5.644;2024-01-27T11:33:10;29.70;90.00
45008;DHT22;30743;52.008;5.644;2024-01-27T11:35:36;29.80;89.50
45008;DHT22;30743;52.008;5.644;2024-01-27T11:38:02;29.90;89.30
45008;DHT22;30743;52.008;5.644;2024-01-27T11:40:27;28.70;85.40
45008;DHT22;30743;52.008;5.644;2024-01-27T11:42:58;27.30;89.70
45008;DHT22;30743;52.008;5.644;2024-01-27T11:45:24;26.80;89.50
45008;DHT22;30743;52.008;5.644;2024-01-27T11:47:50;26.40;90.00
45008;DHT22;30743;52.008;5.644;2024-01-27T11:50:19;25.40;89.40
45008;DHT22;30743;52.008;5.644;2024-01-27T11:52:46;24.50;90.40
45008;DHT22;30743;52.008;5.644;2024-01-27T11:55:12;24.00;91.10
45008;DHT22;30743;52.008;5.644;2024-01-27T11:57:37;23.70;91.50
45008;DHT22;30743;52.008;5.644;2024-01-27T12:00:03;23.00;92.00
45008;DHT22;30743;52.008;5.644;2024-01-27T12:02:29;22.80;92.00
45008;DHT22;30743;52.008;5.644;2024-01-27T12:04:55;22.60;92.30
45008;DHT22;30743;52.008;5.644;2024-01-27T12:07:21;22.60;92.50
45008;DHT22;30743;52.008;5.644;2024-01-27T12:09:50;22.60;93.00
45008;DHT22;30743;52.008;5.644;2024-01-27T12:12:16;23.00;92.80
45008;DHT22;30743;52.008;5.644;2024-01-27T12:14:45;23.00;92.10
45008;DHT22;30743;52.008;5.644;2024-01-27T12:17:11;23.20;93.00
45008;DHT22;30743;52.008;5.644;2024-01-27T12:19:38;24.00;93.00
45008;DHT22;30743;52.008;5.644;2024-01-27T12:22:04;24.50;91.20
45008;DHT22;30743;52.008;5.644;2024-01-27T12:24:30;23.90;91.50
45008;DHT22;30743;52.008;5.644;2024-01-27T12:26:59;23.90;92.30
45008;DHT22;30743;52.008;5.644;2024-01-27T12:29:25;24.20;91.20
45008;DHT22;30743;52.008;5.644;2024-01-27T12:31:50;24.30;91.50
45008;DHT22;30743;52.008;5.644;2024-01-27T12:34:18;24.80;92.00
45008;DHT22;30743;52.008;5.644;2024-01-27T12:36:44;24.80;91.10
45008;DHT22;30743;52.008;5.644;2024-01-27T12:39:10;24.70;91.80
45008;DHT22;30743;52.008;5.644;2024-01-27T12:41:36;25.30;91.20
45008;DHT22;30743;52.008;5.644;2024-01-27T12:44:01;25.50;91.10
45008;DHT22;30743;52.008;5.644;2024-01-27T12:46:30;25.60;90.90
45008;DHT22;30743;52.008;5.644;2024-01-27T12:48:57;25.90;90.50
45008;DHT22;30743;52.008;5.644;2024-01-27T12:51:22;26.00;90.00
45008;DHT22;30743;52.008;5.644;2024-01-27T12:53:48;26.10;90.00
45008;DHT22;30743;52.008;5.644;2024-01-27T12:56:14;24.90;90.20
45008;DHT22;30743;52.008;5.644;2024-01-27T12:58:41;24.90;90.90
45008;DHT22;30743;52.008;5.644;2024-01-27T13:01:08;24.80;90.60
45008;DHT22;30743;52.008;5.644;2024-01-27T13:03:34;24.40;91.10
45008;DHT22;30743;52.008;5.644;2024-01-27T13:06:00;24.60;91.30
45008;DHT22;30743;52.008;5.644;2024-01-27T13:08:26;24.90;91.30
45008;DHT22;30743;52.008;5.644;2024-01-27T13:10:51;25.20;91.20
45008;DHT22;30743;52.008;5.644;2024-01-27T13:13:17;25.70;91.00
45008;DHT22;30743;52.008;5.644;2024-01-27T13:15:43;26.10;90.20
45008;DHT22;30743;52.008;5.644;2024-01-27T13:18:09;25.20;89.30
45008;DHT22;30743;52.008;5.644;2024-01-27T13:20:36;24.80;90.40
45008;DHT22;30743;52.008;5.644;2024-01-27T13:23:01;24.70;89.90
45008;DHT22;30743;52.008;5.644;2024-01-27T13:25:27;24.20;90.60
45008;DHT22;30743;52.008;5.644;2024-01-27T13:27:52;23.50;91.30
45008;DHT22;30743;52.008;5.644;2024-01-27T13:30:18;22.60;91.50
45008;DHT22;30743;52.008;5.644;2024-01-27T13:32:44;22.40;92.20
45008;DHT22;30743;52.008;5.644;2024-01-27T13:35:10;22.10;92.60
45008;DHT22;30743;52.008;5.644;2024-01-27T13:37:36;21.80;92.10
45008;DHT22;30743;52.008;5.644;2024-01-27T13:40:03;21.20;92.60
45008;DHT22;30743;52.008;5.644;2024-01-27T13:42:30;20.90;93.50
45008;DHT22;30743;52.008;5.644;2024-01-27T13:44:55;20.70;94.10
45008;DHT22;30743;52.008;5.644;2024-01-27T13:47:21;20.40;94.00
45008;DHT22;30743;52.008;5.644;2024-01-27T13:49:47;20.20;94.10
45008;DHT22;30743;52.008;5.644;2024-01-27T13:52:13;19.70;94.40
45008;DHT22;30743;52.008;5.644;2024-01-27T13:54:38;19.50;94.80
45008;DHT22;30743;52.008;5.644;2024-01-27T13:57:04;19.50;95.10
45008;DHT22;30743;52.008;5.644;2024-01-27T13:59:30;19.90;95.50
45008;DHT22;30743;52.008;5.644;2024-01-27T14:01:57;20.50;95.30
45008;DHT22;30743;52.008;5.644;2024-01-27T14:04:23;20.90;94.90
45008;DHT22;30743;52.008;5.644;2024-01-27T14:06:50;21.20;94.00
45008;DHT22;30743;52.008;5.644;2024-01-27T14:09:16;21.70;94.00
45008;DHT22;30743;52.008;5.644;2024-01-27T14:11:42;21.80;94.00
45008;DHT22;30743;52.008;5.644;2024-01-27T14:14:07;21.70;93.70
45008;DHT22;30743;52.008;5.644;2024-01-27T14:16:33;21.50;93.60
45008;DHT22;30743;52.008;5.644;2024-01-27T14:18:58;21.50;94.00
45008;DHT22;30743;52.008;5.644;2024-01-27T14:21:24;21.60;93.80
45008;DHT22;30743;52.008;5.644;2024-01-27T14:23:50;21.60;93.60
45008;DHT22;30743;52.008;5.644;2024-01-27T14:26:16;21.40;93.60
45008;DHT22;30743;52.008;5.644;2024-01-27T14:28:42;20.70;93.80
45008;DHT22;30743;52.008;5.644;2024-01-27T14:31:07;20.30;94.30
45008;DHT22;30743;52.008;5.644;2024-01-27T14:33:33;21.00;95.20
45008;DHT22;30743;52.008;5.644;2024-01-27T14:35:59;19.50;95.40
45008;DHT22;30743;52.008;5.644;2024-01-27T14:38:25;19.10;95.20
45008;DHT22;30743;52.008;5.644;2024-01-27T14:40:50;18.90;95.70
45008;DHT22;30743;52.008;5.644;2024-01-27T14:43:16;18.70;96.20
45008;DHT22;30743;52.008;5.644;2024-01-27T14:45:46;18.30;96.50
45008;DHT22;30743;52.008;5.644;2024-01-27T14:48:12;18.10;96.90
45008;DHT22;30743;52.008;5.644;2024-01-27T14:50:38;18.00;96.90
45008;DHT22;30743;52.008;5.644;2024-01-27T14:53:04;17.70;97.10
45008;DHT22;30743;52.008;5.644;2024-01-27T14:55:33;18.30;97.60
45008;DHT22;30743;52.008;5.644;2024-01-27T14:57:59;17.50;97.40
45008;DHT22;30743;52.008;5.644;2024-01-27T15:00:25;17.00;98.00
45008;DHT22;30743;52.008;5.644;2024-01-27T15:02:51;16.90;98.30
45008;DHT22;30743;52.008;5.644;2024-01-27T15:05:17;16.70;98.70
45008;DHT22;30743;52.008;5.644;2024-01-27T15:07:44;16.40;98.70
45008;DHT22;30743;52.008;5.644;2024-01-27T15:10:10;16.20;99.10
45008;DHT22;30743;52.008;5.644;2024-01-27T15:12:37;15.90;99.40
45008;DHT22;30743;52.008;5.644;2024-01-27T15:15:04;16.00;99.90
45008;DHT22;30743;52.008;5.644;2024-01-27T15:17:30;15.60;99.90
45008;DHT22;30743;52.008;5.644;2024-01-27T15:19:55;15.90;99.90
45008;DHT22;30743;52.008;5.644;2024-01-27T15:22:21;15.70;99.90
45008;DHT22;30743;52.008;5.644;2024-01-27T15:24:47;15.70;99.90
45008;DHT22;30743;52.008;5.644;2024-01-27T15:27:13;15.70;99.90
45008;DHT22;30743;52.008;5.644;2024-01-27T15:29:38;15.70;99.90
45008;DHT22;30743;52.008;5.644;2024-01-27T15:32:04;15.70;99.90
45008;DHT22;30743;52.008;5.644;2024-01-27T15:34:30;15.50;99.90
45008;DHT22;30743;52.008;5.644;2024-01-27T15:36:55;15.50;99.90